LESOLEZG

Guest
Details From LESO - San_Sebastian
To LEZG - Zaragoza AB
Flight Number -
Tags generated
Created
Modified
Stats Distance 107 nm / 199 km
Max Altitude 10,000 ft / 3,048 m
Waypoints 3
Social Downloads 2
Likes 0
Share VATSIM

Download

Looking for another format? Having issues loading an existing format? Contact us
Advertisement - Login to hide

Notes

Basic altitude profile: - Ascent Rate: 800ft/min - Ascent Speed: 130kts - Cruise Altitude: 10000ft - Cruise Speed: 130kts - Descent Rate: 800ft/min - Descent Speed: 130kts

Route

LESO LARDA LEZG

ID Type Via Altitude Latitude Longitude Leg Dist Tot Dist Heading (true) Name
O LESO APT - 0 ft / 0 m 43.35652˚ -1.79061˚ - 0 nm - San_Sebastian
LARDA FIX - 10,000 ft / 3,048 m 42.13158˚ -1.36209˚ 75 nm 75 nm 165° / 166° -
O LEZG APT - 0 ft / 0 m 41.66703˚ -1.04356˚ 31 nm 107 nm 153° / 153° Zaragoza AB

Altitude Profile

Advertisement - Login to hide

LESO

Details ICAO LESO (EAS)
Name San_Sebastian
Region Spain
Timezone Europe/Madrid (UTC+1.0)
Stats Elevation 14 ft / 4 m (AMSL)
Location 43.356520° -1.790611°
Runways 1
Magnetic Variation 0.298° W

METAR

LESO 131530Z 23009KT 200V260 9999 SCT052 14/04 Q1017

Decode

TAF

TAF TAF AMD LESO 131422Z 1314/1412 23009KT 9999 BKN035 TX15/1314Z TN10/1406Z PROB40 TEMPO 1314/1321 23015G25KT PROB30 TEMPO 1314/1315 RA TEMPO 1315/1412 3000 RA BKN014

Decode

Departure Runways

ID Width Length Bearing (true) Bearing (mag) Surface Threshold Offset Overrun Length
04 148 ft / 45 m 5,762 ft / 1,756 m 38.68° 38.98° Asphalt 0 ft / 0 m 0 ft / 0 m
22 148 ft / 45 m 5,762 ft / 1,756 m 218.69° 218.99° Asphalt 0 ft / 0 m 0 ft / 0 m

LEZG

Details ICAO LEZG (ZAZ)
Name Zaragoza AB
Region Spain
Timezone Europe/Madrid (UTC+1.0)
Stats Elevation 862 ft / 263 m (AMSL)
Location 41.667030° -1.043559°
Runways 2
Magnetic Variation 0.011° W

METAR

LEZG 131530Z 34004KT CAVOK 10/03 Q1021

Decode

TAF

TAF LEZG 131100Z 1312/1412 25012KT 9999 SCT060 TX14/1313Z TN08/1407Z PROB30 TEMPO 1312/1320 VRB04KT PROB40 TEMPO 1312/1412 25017G27KT

Decode

Destination Runways

ID Width Length Bearing (true) Bearing (mag) Surface Threshold Offset Overrun Length
12L 148 ft / 45 m 9,934 ft / 3,028 m 120.12° 120.13° Asphalt 0 ft / 0 m 984 ft / 300 m
12R 148 ft / 45 m 12,181 ft / 3,713 m 120.10° 120.11° Asphalt 0 ft / 0 m 984 ft / 300 m
30L 148 ft / 45 m 12,181 ft / 3,713 m 300.12° 300.13° Asphalt 0 ft / 0 m 984 ft / 300 m
30R 148 ft / 45 m 9,934 ft / 3,028 m 300.14° 300.15° Asphalt 0 ft / 0 m 607 ft / 185 m

Approach Navaids

Runway Type Ident Frequency Range Bearing (true) Bearing (mag) Slope Elevation
30R Localiser IZZA 109.50 MHz 18 nm / 33 km 300.12° 300.13° - 862 ft / 263 m (AMSL)
30R Glidescope IZZA 109.50 MHz 10 nm / 19 km 300.13° 300.14° 2.50° 862 ft / 263 m (AMSL)

Popular Alternatives